Port Hood, Canada
Current Conditions -  °F | °C
As of 10:00 AM on Friday 28 Nov 2014 (Local Time) from CYPD Reporting Station
Broken Clouds Broken Clouds  
Wind Chill: -4°   Ceiling: 2600
Heat Index: -1°   Visibility: 9mi
Dew Point: -3°   Wind: 6mph
Humidity: 86%   Direction: 20°NNE
Pressure: 29.92"   Gusts: NA
Location:  46.03°N, 61.53°W
Report Text: CYPD 281400Z AUTO 02005KT 350V060 9SM BKN026 BKN033 M01/M03 A2992 RMK PRESRR SLP136
Loading
Personal Weather Stations






























Interactive Weather Map New forecast layout! Learn more

10-Day Weather Forecast

Advertisements
Track Severe Weather on mobile